Kyokusho Maru — JL6605 — position and weather

sailwx.info

Track history (hours):
 
Tides and Currents Weather Stations Pressure Air Temp Water Temp Dewpoint Dewpoint Depression Visibility Wind Speed Wind Dir Waves Ship Positions

Kyokusho Maru

Last reported at 2016-Jun-21 09:21 UTC. Time now 2016-Jul-01 00:57 UTC.
Position N 34°36' E 134°56'.
Warning: this ship's position is 9 days out of date.

Length 77 m; draft 5.4 m.

Type: Tanker. MMSI: 431501667.

Date/timePositionNaut miles runAvg speedWind from/ knotsBaromVisibWave heightAir tempDewpointWater temp
2016-Jun-21 09:21N 34°36' E 134°56'8 9.7
2016-Jun-21 08:33N 34°35' E 135°05'1110.6
2016-Jun-21 07:33N 34°25' E 135°02'10 9.8
2016-Jun-21 06:33N 34°15' E 135°00'10 1.7
2016-Jun-21 00:27N 34°07' E 135°08'2 2.1
2016-Jun-20 23:33N 34°09' E 135°08'0 0.1
2016-Jun-20 22:33N 34°09' E 135°08'0 0.0
2016-Jun-20 21:30N 34°09' E 135°08'0 0.1
2016-Jun-20 20:33N 34°09' E 135°08'0 0.1
2016-Jun-20 19:33N 34°09' E 135°08'0 0.1
2016-Jun-20 18:30N 34°09' E 135°08'0 0.0
2016-Jun-20 17:33N 34°09' E 135°08'0 0.0
2016-Jun-20 16:33N 34°09' E 135°08'0 0.0
2016-Jun-20 15:12N 34°09' E 135°08'0 0.0
2016-Jun-20 14:30N 34°09' E 135°08'0 0.1
2016-Jun-20 13:33N 34°09' E 135°08'0 0.0
2016-Jun-20 12:24N 34°09' E 135°08'0 0.0
2016-Jun-20 11:33N 34°09' E 135°08'0 0.0
2016-Jun-20 10:30N 34°09' E 135°08'0 0.0
2016-Jun-20 09:27N 34°09' E 135°08'3 3.3
2016-Jun-20 08:34N 34°11' E 135°05'1110.3
2016-Jun-20 07:31N 34°21' E 134°59'1111.7
2016-Jun-20 06:33N 34°32' E 135°02'  
2016-Jun-16 10:33N 34°38' E 134°59'9 9.4
2016-Jun-16 09:33N 34°29' E 135°04'1312.1
2016-Jun-16 08:26N 34°16' E 134°60'1111.4
2016-Jun-16 07:31N 34°08' E 135°07'1 0.1
2016-Jun-16 02:08N 34°07' E 135°08'4 7.5
2016-Jun-16 01:33N 34°10' E 135°03'1110.7
2016-Jun-16 00:32N 34°20' E 134°59'1212.2
2016-Jun-15 23:33N 34°32' E 135°03'  
Track history (hours):
 
Tides and Currents Weather Stations Pressure Air Temp Water Temp Dewpoint Dewpoint Depression Visibility Wind Speed Wind Dir Waves Ship Positions

Kyokusho Maru

Last reported at 2016-Jun-21 09:21 UTC. Time now 2016-Jul-01 00:57 UTC.
Position N 34°36' E 134°56'.
Warning: this ship's position is 9 days out of date.

Length 77 m; draft 5.4 m.

Type: Tanker. MMSI: 431501667.

Date/timePositionNaut miles runAvg speedWind from/ knotsBaromVisibWave heightAir tempDewpointWater temp
2016-Jun-21 09:21N 34°36' E 134°56'8 9.7
2016-Jun-21 08:33N 34°35' E 135°05'1110.6
2016-Jun-21 07:33N 34°25' E 135°02'10 9.8
2016-Jun-21 06:33N 34°15' E 135°00'10 1.7
2016-Jun-21 00:27N 34°07' E 135°08'2 2.1
2016-Jun-20 23:33N 34°09' E 135°08'0 0.1
2016-Jun-20 22:33N 34°09' E 135°08'0 0.0
2016-Jun-20 21:30N 34°09' E 135°08'0 0.1
2016-Jun-20 20:33N 34°09' E 135°08'0 0.1
2016-Jun-20 19:33N 34°09' E 135°08'0 0.1
2016-Jun-20 18:30N 34°09' E 135°08'0 0.0
2016-Jun-20 17:33N 34°09' E 135°08'0 0.0
2016-Jun-20 16:33N 34°09' E 135°08'0 0.0
2016-Jun-20 15:12N 34°09' E 135°08'0 0.0
2016-Jun-20 14:30N 34°09' E 135°08'0 0.1
2016-Jun-20 13:33N 34°09' E 135°08'0 0.0
2016-Jun-20 12:24N 34°09' E 135°08'0 0.0
2016-Jun-20 11:33N 34°09' E 135°08'0 0.0
2016-Jun-20 10:30N 34°09' E 135°08'0 0.0
2016-Jun-20 09:27N 34°09' E 135°08'3 3.3
2016-Jun-20 08:34N 34°11' E 135°05'1110.3
2016-Jun-20 07:31N 34°21' E 134°59'1111.7
2016-Jun-20 06:33N 34°32' E 135°02'  
2016-Jun-16 10:33N 34°38' E 134°59'9 9.4
2016-Jun-16 09:33N 34°29' E 135°04'1312.1
2016-Jun-16 08:26N 34°16' E 134°60'1111.4
2016-Jun-16 07:31N 34°08' E 135°07'1 0.1
2016-Jun-16 02:08N 34°07' E 135°08'4 7.5
2016-Jun-16 01:33N 34°10' E 135°03'1110.7
2016-Jun-16 00:32N 34°20' E 134°59'1212.2
2016-Jun-15 23:33N 34°32' E 135°03'  

Dump ship's entire track history